Time;durP1;ratioP1;P1;durP2;ratioP2;P2;SDS_P1;SDS_P2;PMS_P1;PMS_P2;Temp;Humidity;BMP_temperature;BMP_pressure;BME280_temperature;BME280_humidity;BME280_pressure;Samples;Min_cycle;Max_cycle;Signal;HPM_P1;HPM_P2
2021/12/24 00:00:13;;;;;;;;;32.75;31.75;;;;;;;;5046350;28;45558;-63
2021/12/24 00:02:38;;;;;;;;;33.50;33.50;;;;;;;;5033131;28;45813;-62
2021/12/24 00:05:04;;;;;;;;;41.75;34.75;;;;;;;;5044643;28;45992;-61
2021/12/24 00:07:31;;;;;;;;;31.00;29.75;;;;;;;;5031017;28;47770;-62
2021/12/24 00:09:56;;;;;;;;;34.75;32.75;;;;;;;;5046770;28;45667;-62
2021/12/24 00:12:24;;;;;;;;;29.00;26.75;;;;;;;;5047565;28;45634;-63
2021/12/24 00:14:53;;;;;;;;;27.50;25.25;;;;;;;;5052042;28;45409;-63
2021/12/24 00:17:24;;;;;;;;;32.75;27.00;;;;;;;;5034725;28;47224;-62
2021/12/24 00:36:13;;;;;;;;;31.75;30.75;;;;;;;;5048873;28;45466;-61
2021/12/24 00:38:39;;;;;;;;;25.50;25.00;;;;;;;;5030709;28;47699;-62
2021/12/24 00:41:05;;;;;;;;;30.00;26.50;;;;;;;;5047617;28;45413;-61
2021/12/24 00:43:30;;;;;;;;;25.00;21.75;;;;;;;;5047893;28;45552;-62
2021/12/24 00:45:56;;;;;;;;;36.75;32.50;;;;;;;;5042423;28;45924;-62
2021/12/24 00:48:22;;;;;;;;;26.00;23.50;;;;;;;;5042652;28;45611;-61
2021/12/24 00:56:08;;;;;;;;;34.00;30.50;;;;;;;;5050490;28;45433;-63
2021/12/24 00:58:33;;;;;;;;;33.50;28.50;;;;;;;;5050229;28;46338;-61
2021/12/24 01:00:58;;;;;;;;;25.00;23.75;;;;;;;;5033153;28;45750;-60
2021/12/24 01:03:24;;;;;;;;;27.25;26.25;;;;;;;;5052834;28;45564;-62
2021/12/24 01:05:49;;;;;;;;;33.25;27.75;;;;;;;;5050743;28;45929;-62
2021/12/24 01:08:15;;;;;;;;;29.75;27.75;;;;;;;;5043997;28;46410;-62
2021/12/24 01:10:42;;;;;;;;;33.25;30.75;;;;;;;;5041373;28;46522;-63
2021/12/24 01:13:08;;;;;;;;;24.75;22.25;;;;;;;;5021160;28;45630;-63
2021/12/24 01:15:36;;;;;;;;;32.00;28.50;;;;;;;;5051777;28;45409;-63
2021/12/24 01:20:37;;;;;;;;;32.75;29.75;;;;;;;;5050688;28;46079;-62
2021/12/24 01:38:58;;;;;;;;;29.50;29.25;;;;;;;;5051870;28;45488;-63
2021/12/24 01:44:09;;;;;;;;;28.75;25.50;;;;;;;;5050141;28;45430;-62
2021/12/24 01:46:34;;;;;;;;;31.00;29.00;;;;;;;;5050265;28;45631;-62
2021/12/24 01:48:59;;;;;;;;;33.00;31.50;;;;;;;;5049737;28;45568;-62
2021/12/24 01:51:24;;;;;;;;;27.75;26.25;;;;;;;;5052205;28;45779;-62
2021/12/24 01:53:49;;;;;;;;;31.00;28.25;;;;;;;;5034021;28;45469;-62
2021/12/24 01:56:15;;;;;;;;;29.00;28.00;;;;;;;;5050340;28;45564;-62
2021/12/24 01:58:41;;;;;;;;;29.00;26.50;;;;;;;;5048357;28;45488;-61
2021/12/24 02:01:07;;;;;;;;;21.25;21.25;;;;;;;;5048673;28;45493;-61
2021/12/24 02:03:32;;;;;;;;;33.25;27.75;;;;;;;;5050500;28;45414;-59
2021/12/24 02:05:58;;;;;;;;;24.50;23.75;;;;;;;;5052904;28;45500;-61
2021/12/24 02:08:23;;;;;;;;;27.75;25.50;;;;;;;;5049996;28;46516;-61
2021/12/24 02:10:49;;;;;;;;;33.75;31.50;;;;;;;;5050181;28;45474;-61
2021/12/24 02:13:14;;;;;;;;;30.75;27.25;;;;;;;;5049678;28;45544;-61
2021/12/24 02:28:46;;;;;;;;;27.00;24.50;;;;;;;;5048030;28;45578;-61
2021/12/24 02:31:16;;;;;;;;;34.50;27.50;;;;;;;;5034072;28;45534;-61
2021/12/24 02:33:41;;;;;;;;;26.50;25.75;;;;;;;;5038531;28;45389;-61
2021/12/24 02:36:07;;;;;;;;;28.25;25.75;;;;;;;;5053504;28;45339;-61
2021/12/24 02:38:33;;;;;;;;;31.00;30.00;;;;;;;;5031057;28;46196;-61
2021/12/24 02:40:59;;;;;;;;;32.00;30.25;;;;;;;;5032515;28;45372;-61
2021/12/24 02:43:25;;;;;;;;;26.50;24.00;;;;;;;;5040160;28;45397;-61
2021/12/24 02:45:54;;;;;;;;;25.25;23.00;;;;;;;;5049833;28;45559;-60
2021/12/24 02:56:16;;;;;;;;;31.50;27.50;;;;;;;;5047862;28;45642;-61
2021/12/24 02:58:42;;;;;;;;;31.00;30.50;;;;;;;;5046271;28;46490;-61
2021/12/24 03:01:08;;;;;;;;;28.50;27.00;;;;;;;;5037627;28;45535;-62
2021/12/24 03:03:33;;;;;;;;;30.50;27.00;;;;;;;;5031499;28;45585;-62
2021/12/24 03:05:59;;;;;;;;;26.00;24.00;;;;;;;;5044073;28;45449;-61
2021/12/24 03:08:24;;;;;;;;;29.50;27.00;;;;;;;;5047419;28;45452;-62
2021/12/24 03:10:49;;;;;;;;;29.00;27.00;;;;;;;;5048517;28;45621;-62
2021/12/24 03:13:15;;;;;;;;;34.75;29.50;;;;;;;;5034114;28;45507;-62
2021/12/24 03:15:41;;;;;;;;;32.75;27.00;;;;;;;;5031956;28;45443;-62
2021/12/24 03:18:06;;;;;;;;;29.00;28.50;;;;;;;;5051820;28;45446;-61
2021/12/24 03:20:34;;;;;;;;;30.75;28.75;;;;;;;;5051103;28;45594;-62
2021/12/24 03:23:32;;;;;;;;;28.00;27.50;;;;;;;;5050813;28;45390;-61
2021/12/24 03:25:53;;;;;;;;;32.00;26.50;;;;;;;;5050263;28;45488;-61
2021/12/24 03:28:19;;;;;;;;;33.50;31.50;;;;;;;;5031060;28;46148;-63
2021/12/24 03:30:44;;;;;;;;;32.25;28.75;;;;;;;;5051525;28;45521;-63
2021/12/24 03:33:09;;;;;;;;;27.25;26.00;;;;;;;;5052308;28;45428;-62
2021/12/24 03:35:34;;;;;;;;;32.50;29.75;;;;;;;;5051214;28;45679;-63
2021/12/24 03:38:00;;;;;;;;;27.00;26.00;;;;;;;;5050285;28;45521;-62
2021/12/24 03:40:25;;;;;;;;;30.00;27.25;;;;;;;;5046819;28;45612;-63
2021/12/24 03:42:50;;;;;;;;;25.00;23.25;;;;;;;;5034926;28;45473;-62
2021/12/24 03:45:41;;;;;;;;;28.00;23.75;;;;;;;;5054008;28;45456;-62
2021/12/24 03:48:14;;;;;;;;;31.50;29.75;;;;;;;;5052556;28;45513;-62
2021/12/24 03:56:08;;;;;;;;;33.50;26.25;;;;;;;;5027812;28;45490;-62
2021/12/24 03:58:34;;;;;;;;;30.25;27.50;;;;;;;;5008606;28;46667;-63
2021/12/24 04:00:59;;;;;;;;;29.00;25.00;;;;;;;;5018467;28;45264;-62
2021/12/24 04:03:24;;;;;;;;;29.75;25.00;;;;;;;;5014453;28;45379;-62
2021/12/24 04:05:49;;;;;;;;;26.75;24.75;;;;;;;;5015450;28;45426;-62
2021/12/24 04:08:15;;;;;;;;;28.25;25.75;;;;;;;;5030394;28;45529;-62
2021/12/24 04:10:40;;;;;;;;;26.75;25.00;;;;;;;;5031228;28;45622;-62
2021/12/24 04:13:08;;;;;;;;;30.75;27.25;;;;;;;;5031341;28;45350;-63
2021/12/24 04:15:35;;;;;;;;;30.50;26.25;;;;;;;;5031530;28;45648;-63
2021/12/24 04:18:00;;;;;;;;;30.75;28.50;;;;;;;;5031661;28;45514;-62
2021/12/24 04:25:53;;;;;;;;;31.75;30.50;;;;;;;;5031084;28;45502;-60
2021/12/24 04:28:19;;;;;;;;;30.75;24.50;;;;;;;;5031019;28;46649;-62
2021/12/24 04:30:49;;;;;;;;;29.00;27.75;;;;;;;;5031390;28;45519;-62
2021/12/24 04:33:30;;;;;;;;;31.75;26.25;;;;;;;;5024561;28;45461;-62
2021/12/24 04:38:59;;;;;;;;;19.75;15.50;;;;;;;;5032898;28;45547;-62
2021/12/24 04:52:40;;;;;;;;;27.00;25.25;;;;;;;;5036452;28;45446;-62
2021/12/24 05:03:26;;;;;;;;;27.25;25.25;;;;;;;;5033339;28;45328;-61
2021/12/24 05:06:04;;;;;;;;;25.25;24.25;;;;;;;;5037183;28;45484;-62
2021/12/24 05:08:39;;;;;;;;;22.75;21.50;;;;;;;;5034810;28;45402;-62
2021/12/24 05:11:10;;;;;;;;;23.00;21.25;;;;;;;;5033872;28;46428;-62
2021/12/24 05:13:35;;;;;;;;;29.25;29.25;;;;;;;;5035851;28;45357;-62
2021/12/24 05:16:12;;;;;;;;;21.00;20.25;;;;;;;;5034369;28;45464;-61
2021/12/24 05:19:03;;;;;;;;;26.75;25.00;;;;;;;;5035466;28;45394;-63
2021/12/24 05:21:35;;;;;;;;;23.50;22.25;;;;;;;;5051124;28;45583;-62
2021/12/24 05:24:07;;;;;;;;;24.00;24.00;;;;;;;;5056107;28;45453;-62
2021/12/24 05:26:33;;;;;;;;;26.00;22.25;;;;;;;;5055433;28;45396;-62
2021/12/24 05:28:59;;;;;;;;;20.50;20.50;;;;;;;;5055726;28;45362;-62
2021/12/24 05:31:24;;;;;;;;;31.00;29.00;;;;;;;;5054262;28;46063;-62
2021/12/24 05:33:50;;;;;;;;;28.25;26.75;;;;;;;;5056317;28;45414;-62
2021/12/24 05:36:15;;;;;;;;;27.50;22.50;;;;;;;;5056038;28;45453;-62
2021/12/24 05:38:40;;;;;;;;;24.00;22.00;;;;;;;;5056380;28;45338;-63
2021/12/24 05:41:06;;;;;;;;;24.50;22.00;;;;;;;;5054335;28;45501;-62
2021/12/24 05:43:31;;;;;;;;;25.00;24.75;;;;;;;;5055885;28;45682;-62
2021/12/24 05:45:57;;;;;;;;;18.25;16.25;;;;;;;;5055988;28;45369;-62
2021/12/24 05:48:22;;;;;;;;;30.00;27.25;;;;;;;;5038039;28;45573;-62
2021/12/24 05:50:47;;;;;;;;;23.75;22.50;;;;;;;;5056177;28;45988;-63
2021/12/24 05:53:12;;;;;;;;;39.75;34.50;;;;;;;;5055566;28;45465;-62
2021/12/24 05:55:38;;;;;;;;;39.75;37.00;;;;;;;;5055109;28;45371;-62
2021/12/24 05:58:07;;;;;;;;;44.50;38.00;;;;;;;;5037584;28;45454;-62
2021/12/24 06:00:33;;;;;;;;;35.25;31.50;;;;;;;;5054893;28;45711;-62
2021/12/24 06:02:58;;;;;;;;;36.75;34.50;;;;;;;;5056186;28;45346;-61
2021/12/24 06:05:23;;;;;;;;;38.25;35.00;;;;;;;;5055360;28;45374;-61
2021/12/24 06:07:48;;;;;;;;;30.50;27.25;;;;;;;;5055889;28;45345;-61
2021/12/24 06:10:14;;;;;;;;;24.00;22.25;;;;;;;;5054202;28;45492;-61
2021/12/24 06:12:39;;;;;;;;;24.25;24.00;;;;;;;;5036700;28;46208;-62
2021/12/24 06:15:07;;;;;;;;;28.50;24.00;;;;;;;;5036675;28;45521;-61
2021/12/24 06:17:34;;;;;;;;;27.50;24.75;;;;;;;;5054578;28;45381;-62
2021/12/24 06:19:59;;;;;;;;;20.75;18.50;;;;;;;;5036462;28;47513;-61
2021/12/24 06:22:24;;;;;;;;;21.75;21.00;;;;;;;;5055294;28;45385;-62
2021/12/24 06:24:49;;;;;;;;;26.50;23.00;;;;;;;;5071107;27;45381;-62
2021/12/24 06:27:14;;;;;;;;;26.50;23.75;;;;;;;;5055503;28;45515;-62
2021/12/24 06:29:40;;;;;;;;;25.00;21.75;;;;;;;;5036302;28;48895;-62
2021/12/24 06:32:05;;;;;;;;;18.50;18.50;;;;;;;;5053196;28;45520;-63
2021/12/24 06:34:31;;;;;;;;;22.00;18.75;;;;;;;;5054893;28;45330;-63
2021/12/24 06:36:56;;;;;;;;;21.00;18.50;;;;;;;;5054982;28;45414;-63
2021/12/24 06:39:22;;;;;;;;;23.25;19.25;;;;;;;;5036847;28;46616;-63
2021/12/24 06:41:47;;;;;;;;;19.50;19.50;;;;;;;;5036793;28;45466;-63
2021/12/24 06:44:12;;;;;;;;;19.50;19.25;;;;;;;;5035737;28;45829;-63
2021/12/24 06:46:40;;;;;;;;;19.00;19.00;;;;;;;;5036829;28;45534;-63
2021/12/24 06:49:05;;;;;;;;;17.50;17.50;;;;;;;;5054438;28;46589;-62
2021/12/24 06:51:30;;;;;;;;;20.00;19.00;;;;;;;;5035772;28;45571;-62
2021/12/24 06:53:56;;;;;;;;;17.25;15.75;;;;;;;;5054330;28;45490;-62
2021/12/24 06:56:21;;;;;;;;;19.75;18.00;;;;;;;;5053684;28;45419;-63
2021/12/24 06:58:47;;;;;;;;;18.50;17.50;;;;;;;;5052500;28;45788;-62
2021/12/24 07:01:12;;;;;;;;;15.50;15.00;;;;;;;;5053901;28;45529;-62
2021/12/24 07:03:37;;;;;;;;;14.00;14.00;;;;;;;;5054291;28;45505;-62
2021/12/24 07:06:03;;;;;;;;;17.50;14.75;;;;;;;;5054528;28;45477;-63
2021/12/24 07:08:30;;;;;;;;;17.50;17.50;;;;;;;;5054416;28;45461;-62
2021/12/24 07:10:55;;;;;;;;;17.00;15.00;;;;;;;;5053868;28;46350;-62
2021/12/24 07:13:20;;;;;;;;;13.25;13.25;;;;;;;;5054362;28;45548;-63
2021/12/24 07:15:45;;;;;;;;;12.00;11.00;;;;;;;;5054371;28;46142;-63
2021/12/24 07:18:11;;;;;;;;;13.75;12.75;;;;;;;;5053414;28;46638;-62
2021/12/24 07:20:36;;;;;;;;;16.00;12.75;;;;;;;;5053989;28;45263;-63
2021/12/24 07:23:01;;;;;;;;;14.75;14.00;;;;;;;;5054163;28;45212;-62
2021/12/24 07:25:26;;;;;;;;;12.50;12.00;;;;;;;;5054432;28;45350;-62
2021/12/24 07:27:52;;;;;;;;;16.50;14.50;;;;;;;;5053673;28;45600;-63
2021/12/24 07:30:18;;;;;;;;;16.25;13.75;;;;;;;;5053426;28;45438;-63
2021/12/24 07:32:44;;;;;;;;;12.25;12.00;;;;;;;;5054278;28;45373;-62
2021/12/24 07:35:10;;;;;;;;;12.00;12.00;;;;;;;;5054049;28;45342;-62
2021/12/24 07:37:35;;;;;;;;;13.75;13.50;;;;;;;;5054005;28;46284;-62
2021/12/24 07:40:02;;;;;;;;;16.50;14.25;;;;;;;;5052709;28;45652;-67
2021/12/24 07:42:28;;;;;;;;;13.75;12.00;;;;;;;;5035934;28;45474;-68
2021/12/24 07:44:53;;;;;;;;;14.25;13.75;;;;;;;;5054886;28;46318;-66
2021/12/24 07:47:27;;;;;;;;;14.75;13.50;;;;;;;;5069398;28;48116;-67
2021/12/24 07:50:00;;;;;;;;;11.75;10.50;;;;;;;;5035220;28;45477;-66
2021/12/24 07:52:25;;;;;;;;;7.25;6.75;;;;;;;;5036004;28;45587;-67
2021/12/24 07:54:54;;;;;;;;;11.75;10.50;;;;;;;;5055331;28;45339;-64
2021/12/24 07:57:19;;;;;;;;;11.00;10.50;;;;;;;;5057978;28;46594;-64
2021/12/24 07:59:44;;;;;;;;;8.25;5.00;;;;;;;;5056245;28;45323;-64
2021/12/24 08:02:15;;;;;;;;;12.25;12.25;;;;;;;;5035757;28;45543;-65
2021/12/24 08:04:40;;;;;;;;;9.00;9.00;;;;;;;;5054131;28;45417;-64
2021/12/24 08:07:06;;;;;;;;;6.75;6.75;;;;;;;;5053998;28;45483;-64
2021/12/24 08:09:31;;;;;;;;;2.00;2.00;;;;;;;;5054112;28;45940;-64
2021/12/24 08:11:57;;;;;;;;;6.25;6.25;;;;;;;;5054525;28;45641;-64
2021/12/24 08:14:22;;;;;;;;;15.25;13.50;;;;;;;;5053649;28;45428;-62
2021/12/24 08:16:47;;;;;;;;;12.25;11.25;;;;;;;;5053385;28;45582;-65
2021/12/24 08:19:16;;;;;;;;;9.00;8.00;;;;;;;;5056370;28;45507;-64
2021/12/24 08:21:41;;;;;;;;;8.75;8.75;;;;;;;;5041605;28;45354;-65
2021/12/24 08:24:06;;;;;;;;;11.25;11.25;;;;;;;;5039018;28;45276;-64
2021/12/24 08:26:32;;;;;;;;;8.25;8.25;;;;;;;;5056276;28;46195;-64
2021/12/24 08:28:57;;;;;;;;;11.25;11.00;;;;;;;;5038551;28;46359;-64
2021/12/24 08:31:22;;;;;;;;;10.75;10.50;;;;;;;;5057154;28;45444;-64
2021/12/24 08:33:48;;;;;;;;;11.00;11.00;;;;;;;;5056283;28;45354;-65
2021/12/24 08:36:13;;;;;;;;;11.00;10.00;;;;;;;;5057134;28;45642;-64
2021/12/24 08:38:39;;;;;;;;;8.50;8.50;;;;;;;;5057432;28;45410;-64
2021/12/24 08:41:04;;;;;;;;;7.75;7.50;;;;;;;;5057102;28;45918;-64
2021/12/24 08:43:30;;;;;;;;;21.75;16.75;;;;;;;;5056767;28;45427;-63
2021/12/24 08:45:55;;;;;;;;;11.50;10.75;;;;;;;;5056874;28;46017;-64
2021/12/24 08:48:20;;;;;;;;;11.25;10.25;;;;;;;;5057096;28;45375;-64
2021/12/24 08:50:46;;;;;;;;;11.00;10.00;;;;;;;;5039411;28;45535;-64
2021/12/24 08:53:12;;;;;;;;;9.25;9.00;;;;;;;;5056357;28;45474;-63
2021/12/24 08:55:37;;;;;;;;;11.00;11.00;;;;;;;;5056398;28;45736;-64
2021/12/24 08:58:03;;;;;;;;;11.00;10.25;;;;;;;;5056888;28;45493;-63
2021/12/24 09:00:29;;;;;;;;;17.75;16.50;;;;;;;;5056876;28;45527;-64
2021/12/24 09:02:54;;;;;;;;;14.25;13.00;;;;;;;;5039155;28;45549;-63
2021/12/24 09:05:19;;;;;;;;;13.25;11.00;;;;;;;;5071811;28;48387;-63
2021/12/24 09:07:44;;;;;;;;;11.25;11.25;;;;;;;;5038334;28;45529;-64
2021/12/24 09:10:11;;;;;;;;;12.00;12.00;;;;;;;;5056750;28;45389;-64
2021/12/24 09:12:37;;;;;;;;;11.25;11.25;;;;;;;;5056543;28;45457;-64
2021/12/24 09:15:03;;;;;;;;;13.25;13.25;;;;;;;;5038860;28;48574;-62
2021/12/24 09:17:29;;;;;;;;;9.00;8.50;;;;;;;;5037699;28;45563;-63
2021/12/24 09:19:55;;;;;;;;;7.75;7.75;;;;;;;;5056155;28;45435;-62
2021/12/24 09:22:28;;;;;;;;;10.00;10.00;;;;;;;;5056232;28;45338;-63
2021/12/24 09:24:55;;;;;;;;;14.00;12.75;;;;;;;;5037831;28;48995;-62
2021/12/24 09:27:20;;;;;;;;;14.00;11.25;;;;;;;;5056121;28;45422;-63
2021/12/24 09:29:45;;;;;;;;;12.50;12.50;;;;;;;;5055187;28;45361;-64
2021/12/24 09:32:10;;;;;;;;;11.50;11.00;;;;;;;;5055899;28;45496;-63
2021/12/24 09:34:36;;;;;;;;;8.00;8.00;;;;;;;;5038047;28;49173;-63
2021/12/24 09:37:01;;;;;;;;;11.50;11.25;;;;;;;;5056227;28;45461;-64
2021/12/24 09:39:26;;;;;;;;;10.75;9.75;;;;;;;;5056414;28;45522;-63
2021/12/24 09:41:52;;;;;;;;;10.00;9.25;;;;;;;;5038356;28;45467;-63
2021/12/24 09:44:17;;;;;;;;;10.75;9.00;;;;;;;;5037788;28;47060;-63
2021/12/24 09:46:43;;;;;;;;;11.25;11.25;;;;;;;;5071108;28;46301;-64
2021/12/24 09:49:12;;;;;;;;;9.50;9.50;;;;;;;;5056049;28;45559;-64
2021/12/24 09:51:38;;;;;;;;;9.00;9.00;;;;;;;;5056098;28;45584;-64
2021/12/24 09:54:08;;;;;;;;;11.00;10.25;;;;;;;;5055903;28;45602;-64
2021/12/24 09:56:33;;;;;;;;;9.75;9.75;;;;;;;;5055727;28;45461;-64
2021/12/24 09:58:58;;;;;;;;;10.25;7.50;;;;;;;;5055298;28;45479;-64
2021/12/24 10:01:39;;;;;;;;;8.00;8.00;;;;;;;;5055576;28;45275;-64
2021/12/24 10:04:08;;;;;;;;;15.25;10.50;;;;;;;;5055640;28;45711;-63
2021/12/24 10:06:34;;;;;;;;;12.00;10.25;;;;;;;;5055306;28;45534;-64
2021/12/24 10:09:01;;;;;;;;;7.00;7.00;;;;;;;;5038477;28;45602;-64
2021/12/24 10:11:29;;;;;;;;;13.00;13.00;;;;;;;;5037495;28;45519;-65
2021/12/24 10:14:02;;;;;;;;;13.50;12.00;;;;;;;;5055161;28;45715;-65
2021/12/24 10:16:27;;;;;;;;;11.75;11.75;;;;;;;;5055091;28;45847;-64
2021/12/24 10:18:54;;;;;;;;;10.75;10.75;;;;;;;;5054291;28;45515;-64
2021/12/24 10:21:22;;;;;;;;;14.25;13.00;;;;;;;;5046167;28;45385;-64
2021/12/24 10:23:53;;;;;;;;;12.25;10.75;;;;;;;;5046132;28;45751;-65
2021/12/24 10:26:29;;;;;;;;;9.75;9.75;;;;;;;;5053525;28;45409;-64
2021/12/24 10:29:03;;;;;;;;;13.00;12.00;;;;;;;;5034038;28;45474;-65
2021/12/24 10:31:33;;;;;;;;;12.25;8.50;;;;;;;;5060160;27;45387;-64
2021/12/24 10:34:05;;;;;;;;;12.25;10.75;;;;;;;;5046569;28;45465;-64
2021/12/24 10:36:30;;;;;;;;;13.00;11.25;;;;;;;;5035938;28;45449;-64
2021/12/24 10:38:55;;;;;;;;;10.50;10.50;;;;;;;;5055005;28;45908;-64
2021/12/24 10:41:21;;;;;;;;;13.50;12.00;;;;;;;;5033722;28;45467;-64
2021/12/24 10:43:46;;;;;;;;;13.25;10.75;;;;;;;;5034885;28;48614;-63
2021/12/24 10:46:25;;;;;;;;;10.25;8.25;;;;;;;;5036554;28;46027;-64
2021/12/24 10:49:06;;;;;;;;;16.75;14.75;;;;;;;;5039267;28;45617;-64
2021/12/24 10:51:54;;;;;;;;;10.50;10.50;;;;;;;;5036745;28;45438;-65
2021/12/24 10:54:20;;;;;;;;;15.25;13.75;;;;;;;;5052259;28;45743;-65
2021/12/24 10:56:45;;;;;;;;;14.50;13.25;;;;;;;;5037218;28;45545;-65
2021/12/24 10:59:12;;;;;;;;;14.75;14.00;;;;;;;;5054791;28;45456;-65
2021/12/24 11:01:37;;;;;;;;;15.50;14.25;;;;;;;;5036563;28;45671;-65
2021/12/24 11:04:02;;;;;;;;;14.00;13.50;;;;;;;;5054478;28;46365;-65
2021/12/24 11:06:31;;;;;;;;;10.75;10.50;;;;;;;;5054635;28;45497;-64
2021/12/24 11:08:56;;;;;;;;;14.00;14.00;;;;;;;;5055458;28;45426;-65
2021/12/24 11:11:22;;;;;;;;;12.75;11.50;;;;;;;;5054600;28;45353;-65
2021/12/24 11:13:47;;;;;;;;;13.75;11.75;;;;;;;;5054113;28;45628;-65
2021/12/24 11:16:20;;;;;;;;;12.00;12.00;;;;;;;;5054177;28;45433;-65
2021/12/24 11:18:53;;;;;;;;;12.25;12.25;;;;;;;;5039317;28;45538;-63
2021/12/24 11:21:20;;;;;;;;;16.50;14.25;;;;;;;;5054825;28;45480;-63
2021/12/24 11:23:45;;;;;;;;;11.25;9.75;;;;;;;;5053939;28;46513;-63
2021/12/24 11:26:12;;;;;;;;;11.75;10.75;;;;;;;;5035668;28;45407;-63
2021/12/24 11:28:38;;;;;;;;;11.00;11.00;;;;;;;;5036376;28;45425;-65
2021/12/24 11:31:14;;;;;;;;;15.25;12.50;;;;;;;;5036008;28;45300;-64
2021/12/24 11:33:42;;;;;;;;;14.25;14.00;;;;;;;;5054208;28;46237;-64
2021/12/24 11:36:08;;;;;;;;;8.25;8.25;;;;;;;;5054873;28;45530;-63
2021/12/24 11:38:38;;;;;;;;;17.50;15.00;;;;;;;;5053702;28;45459;-65
2021/12/24 11:41:04;;;;;;;;;13.75;12.25;;;;;;;;5053702;28;45477;-64
2021/12/24 11:43:31;;;;;;;;;12.50;8.00;;;;;;;;5054459;28;45851;-65
2021/12/24 11:45:58;;;;;;;;;11.75;11.75;;;;;;;;5036376;28;45299;-65
2021/12/24 11:48:24;;;;;;;;;13.50;12.25;;;;;;;;5036224;28;45388;-65
2021/12/24 11:50:49;;;;;;;;;17.75;13.50;;;;;;;;5036099;28;45559;-65
2021/12/24 11:53:15;;;;;;;;;17.00;13.75;;;;;;;;5034575;28;48661;-65
2021/12/24 11:55:42;;;;;;;;;10.25;10.25;;;;;;;;5053813;28;45505;-65
2021/12/24 11:58:08;;;;;;;;;11.75;11.75;;;;;;;;5054126;28;45569;-65
2021/12/24 12:00:42;;;;;;;;;13.50;11.00;;;;;;;;5053974;28;45319;-65
2021/12/24 12:03:08;;;;;;;;;12.50;11.25;;;;;;;;5054641;28;46514;-64
2021/12/24 12:05:38;;;;;;;;;13.25;13.25;;;;;;;;5068310;28;45802;-64
2021/12/24 12:08:22;;;;;;;;;14.25;12.00;;;;;;;;5034277;28;45536;-64
2021/12/24 12:10:59;;;;;;;;;15.00;15.00;;;;;;;;5046173;28;45708;-65
2021/12/24 12:13:43;;;;;;;;;16.75;14.50;;;;;;;;5053462;28;46463;-64
2021/12/24 12:16:09;;;;;;;;;15.75;15.75;;;;;;;;5052768;28;45494;-64
2021/12/24 12:18:44;;;;;;;;;11.75;11.75;;;;;;;;5052867;28;45320;-64
2021/12/24 12:21:10;;;;;;;;;13.50;12.75;;;;;;;;5050117;28;45378;-63
2021/12/24 12:23:52;;;;;;;;;11.00;10.25;;;;;;;;5053427;28;46003;-64
2021/12/24 12:26:36;;;;;;;;;14.50;14.50;;;;;;;;5035442;28;45444;-64
2021/12/24 12:29:16;;;;;;;;;13.00;13.00;;;;;;;;5053411;28;45346;-65
2021/12/24 12:31:41;;;;;;;;;14.50;13.75;;;;;;;;5053656;28;45493;-65
2021/12/24 12:34:42;;;;;;;;;17.50;17.00;;;;;;;;5053398;28;45596;-65
2021/12/24 12:37:13;;;;;;;;;12.50;12.00;;;;;;;;4956631;28;45512;-65
2021/12/24 12:39:38;;;;;;;;;14.50;14.50;;;;;;;;4971505;28;45526;-64
2021/12/24 12:42:04;;;;;;;;;15.25;14.25;;;;;;;;4955681;28;45360;-64
2021/12/24 12:44:30;;;;;;;;;10.75;10.75;;;;;;;;4967132;28;45581;-65
2021/12/24 12:47:08;;;;;;;;;13.00;13.00;;;;;;;;4967120;28;45505;-65
2021/12/24 12:49:35;;;;;;;;;14.25;14.25;;;;;;;;4967884;28;45523;-64
2021/12/24 12:52:01;;;;;;;;;12.75;10.75;;;;;;;;4968742;28;45491;-65
2021/12/24 12:54:36;;;;;;;;;13.50;13.50;;;;;;;;4953047;28;49207;-64
2021/12/24 12:57:19;;;;;;;;;15.25;14.75;;;;;;;;4972002;28;45443;-65
2021/12/24 13:00:03;;;;;;;;;11.50;11.50;;;;;;;;4971317;28;45587;-65
2021/12/24 13:02:47;;;;;;;;;15.00;14.25;;;;;;;;4954941;28;45567;-64
2021/12/24 13:05:13;;;;;;;;;14.25;13.00;;;;;;;;4969158;28;46593;-63
2021/12/24 13:07:38;;;;;;;;;13.25;13.25;;;;;;;;4970262;28;45374;-64
2021/12/24 13:10:03;;;;;;;;;13.50;13.50;;;;;;;;4963082;28;45415;-64
2021/12/24 13:12:29;;;;;;;;;12.25;12.25;;;;;;;;5056277;28;45435;-65
2021/12/24 13:14:58;;;;;;;;;14.75;13.75;;;;;;;;5056784;28;46063;-64
2021/12/24 13:17:30;;;;;;;;;12.75;11.50;;;;;;;;5018364;28;45544;-65
2021/12/24 13:20:08;;;;;;;;;14.75;11.50;;;;;;;;5050323;28;45313;-64
2021/12/24 13:22:36;;;;;;;;;13.25;12.00;;;;;;;;5071779;27;45383;-64
2021/12/24 13:25:06;;;;;;;;;14.50;13.25;;;;;;;;5056316;28;46511;-64
2021/12/24 13:27:34;;;;;;;;;17.50;15.25;;;;;;;;5055955;28;45541;-67
2021/12/24 13:30:18;;;;;;;;;12.50;10.00;;;;;;;;5056927;28;45474;-63
2021/12/24 13:32:48;;;;;;;;;11.25;10.25;;;;;;;;5056292;28;45517;-64
2021/12/24 13:35:16;;;;;;;;;18.25;15.00;;;;;;;;5037945;28;48540;-64
2021/12/24 13:37:45;;;;;;;;;13.75;13.25;;;;;;;;5056141;28;45348;-65
2021/12/24 13:40:11;;;;;;;;;13.75;13.75;;;;;;;;5055923;28;45461;-64
2021/12/24 13:42:42;;;;;;;;;17.00;16.50;;;;;;;;5038024;28;45316;-64
2021/12/24 13:45:08;;;;;;;;;21.25;18.00;;;;;;;;5056181;28;46634;-65
2021/12/24 13:56:04;;;;;;;;;15.25;15.25;;;;;;;;5055651;28;46074;-64
2021/12/24 13:58:30;;;;;;;;;23.50;19.50;;;;;;;;5055447;28;45535;-64
2021/12/24 14:00:58;;;;;;;;;15.50;15.50;;;;;;;;5056062;28;45428;-64
2021/12/24 14:03:27;;;;;;;;;17.75;15.75;;;;;;;;5055937;28;45420;-65
2021/12/24 14:05:55;;;;;;;;;25.25;23.75;;;;;;;;5052532;28;47621;-64
2021/12/24 14:08:22;;;;;;;;;21.50;19.50;;;;;;;;5055252;28;46250;-65
2021/12/24 14:10:48;;;;;;;;;20.75;19.50;;;;;;;;5070681;28;45363;-64
2021/12/24 14:13:27;;;;;;;;;15.50;14.75;;;;;;;;5055586;28;46014;-65
2021/12/24 14:18:30;;;;;;;;;16.50;14.25;;;;;;;;5055494;28;45310;-64
2021/12/24 14:21:44;;;;;;;;;14.00;14.00;;;;;;;;5053622;28;45543;-65
2021/12/24 14:23:46;;;;;;;;;19.25;17.25;;;;;;;;5055512;28;45581;-64
2021/12/24 14:26:11;;;;;;;;;21.25;21.00;;;;;;;;5055150;28;46314;-65
2021/12/24 14:28:37;;;;;;;;;15.00;15.00;;;;;;;;5070556;28;45245;-65
2021/12/24 14:31:04;;;;;;;;;15.25;14.75;;;;;;;;5055540;28;45512;-64
2021/12/24 14:33:36;;;;;;;;;19.75;19.75;;;;;;;;5054649;28;45412;-64
2021/12/24 14:36:01;;;;;;;;;20.00;18.50;;;;;;;;5053266;28;45513;-64
2021/12/24 14:38:26;;;;;;;;;12.25;12.25;;;;;;;;5052697;28;45785;-65
2021/12/24 14:40:56;;;;;;;;;14.00;14.00;;;;;;;;5034542;28;45561;-64
2021/12/24 14:43:21;;;;;;;;;20.75;19.50;;;;;;;;5034516;28;45576;-64
2021/12/24 14:45:47;;;;;;;;;18.50;14.00;;;;;;;;5052433;28;45840;-64
2021/12/24 14:48:21;;;;;;;;;14.00;13.50;;;;;;;;5053313;28;45639;-64
2021/12/24 14:50:47;;;;;;;;;13.75;11.75;;;;;;;;5033796;28;45607;-64
2021/12/24 14:53:18;;;;;;;;;19.25;18.25;;;;;;;;5052516;28;45598;-64
2021/12/24 14:55:44;;;;;;;;;18.25;15.25;;;;;;;;5052300;28;45507;-64
2021/12/24 14:58:09;;;;;;;;;15.25;13.75;;;;;;;;5052157;28;45674;-64
2021/12/24 15:00:36;;;;;;;;;17.25;15.75;;;;;;;;5034704;28;45417;-63
2021/12/24 15:03:23;;;;;;;;;18.25;18.25;;;;;;;;5034915;28;45445;-64
2021/12/24 15:05:50;;;;;;;;;22.00;17.75;;;;;;;;5051715;28;45814;-63
2021/12/24 15:08:22;;;;;;;;;16.00;16.00;;;;;;;;5051862;28;45584;-63
2021/12/24 15:10:54;;;;;;;;;15.25;15.25;;;;;;;;5051943;28;45706;-63
2021/12/24 15:13:20;;;;;;;;;23.00;17.50;;;;;;;;5033762;28;45474;-64
2021/12/24 15:15:49;;;;;;;;;21.25;19.00;;;;;;;;5051889;28;45835;-64
2021/12/24 15:18:14;;;;;;;;;18.50;15.50;;;;;;;;5034267;28;45745;-65
2021/12/24 15:20:40;;;;;;;;;24.75;23.75;;;;;;;;5033783;28;45587;-64
2021/12/24 15:23:05;;;;;;;;;23.50;20.75;;;;;;;;5052288;28;45421;-64
2021/12/24 15:25:32;;;;;;;;;25.50;24.50;;;;;;;;5052049;28;45330;-64
2021/12/24 15:28:00;;;;;;;;;20.00;17.25;;;;;;;;5051051;28;45573;-63
2021/12/24 15:30:26;;;;;;;;;19.00;18.00;;;;;;;;5052030;28;45471;-64
2021/12/24 15:32:51;;;;;;;;;19.75;17.25;;;;;;;;5053942;28;45771;-64
2021/12/24 15:35:16;;;;;;;;;22.00;18.50;;;;;;;;5054526;28;45590;-64
2021/12/24 15:37:41;;;;;;;;;18.25;18.25;;;;;;;;5034282;28;46152;-64
2021/12/24 15:40:07;;;;;;;;;25.00;21.00;;;;;;;;5052135;28;45494;-63
2021/12/24 15:42:32;;;;;;;;;20.00;18.75;;;;;;;;5051937;28;45419;-64
2021/12/24 15:44:58;;;;;;;;;23.00;21.25;;;;;;;;5034333;28;47613;-65
2021/12/24 15:47:23;;;;;;;;;21.00;16.50;;;;;;;;5033479;28;45625;-65
2021/12/24 15:49:48;;;;;;;;;21.00;18.25;;;;;;;;5051755;28;45385;-64
2021/12/24 15:52:13;;;;;;;;;24.50;21.50;;;;;;;;5033608;28;45651;-63
2021/12/24 15:54:39;;;;;;;;;21.75;18.75;;;;;;;;5051194;28;45564;-64
2021/12/24 15:57:04;;;;;;;;;23.50;21.00;;;;;;;;5052307;28;45472;-63
2021/12/24 15:59:33;;;;;;;;;26.50;24.25;;;;;;;;5051628;28;45642;-64
2021/12/24 16:01:59;;;;;;;;;25.50;23.50;;;;;;;;5051510;28;45287;-64
2021/12/24 16:04:24;;;;;;;;;36.00;28.75;;;;;;;;5051478;28;46979;-63
2021/12/24 16:06:50;;;;;;;;;28.75;27.25;;;;;;;;5051432;28;45376;-63
2021/12/24 16:09:18;;;;;;;;;23.75;23.00;;;;;;;;5052147;28;45808;-63